Time;durP1;ratioP1;P1;durP2;ratioP2;P2;SDS_P1;SDS_P2;PMS_P1;PMS_P2;Temp;Humidity;BMP_temperature;BMP_pressure;BME280_temperature;BME280_humidity;BME280_pressure;Samples;Min_cycle;Max_cycle;Signal;HPM_P1;HPM_P2
2022/06/11 00:01:26;0.00;0.00;0.62;0.00;0.00;0.62;8.17;5.27;;;28.20;31.20;;;;;;2250667;61;20363;-56
2022/06/11 00:04:17;0.00;0.00;0.62;0.00;0.00;0.62;6.77;3.90;;;28.20;31.20;;;;;;2249319;61;20744;-56
2022/06/11 00:07:06;0.00;0.00;0.62;0.00;0.00;0.62;5.17;3.70;;;28.20;31.20;;;;;;2249032;61;20756;-53
2022/06/11 00:09:53;0.00;0.00;0.62;0.00;0.00;0.62;4.43;3.10;;;28.20;31.10;;;;;;2250083;61;20443;-54
2022/06/11 00:12:38;0.00;0.00;0.62;0.00;0.00;0.62;5.63;3.20;;;28.20;31.10;;;;;;2251887;61;20793;-52
2022/06/11 00:15:24;0.00;0.00;0.62;0.00;0.00;0.62;4.67;3.37;;;28.20;31.20;;;;;;2250901;61;20379;-55
2022/06/11 00:18:09;0.00;0.00;0.62;0.00;0.00;0.62;4.83;3.30;;;28.10;31.10;;;;;;2251460;61;20478;-53
2022/06/11 00:20:55;0.00;0.00;0.62;0.00;0.00;0.62;3.10;2.53;;;28.10;31.10;;;;;;2252101;61;20359;-53
2022/06/11 00:23:42;0.00;0.00;0.62;0.00;0.00;0.62;3.97;2.43;;;28.10;31.20;;;;;;2250746;61;20410;-57
2022/06/11 00:26:29;0.00;0.00;0.62;0.00;0.00;0.62;3.00;2.60;;;28.10;31.20;;;;;;2251713;61;20367;-52
2022/06/11 00:29:15;0.00;0.00;0.62;0.00;0.00;0.62;2.53;2.13;;;28.10;31.30;;;;;;2251612;61;20418;-56
2022/06/11 00:32:00;0.00;0.00;0.62;0.00;0.00;0.62;3.20;2.50;;;28.10;31.30;;;;;;2250956;61;20462;-54
2022/06/11 00:34:46;0.00;0.00;0.62;0.00;0.00;0.62;3.90;2.97;;;28.00;31.30;;;;;;2251593;61;20506;-52
2022/06/11 00:37:31;0.00;0.00;0.62;0.00;0.00;0.62;6.57;3.13;;;28.00;31.40;;;;;;2247549;61;20355;-54
2022/06/11 00:40:21;0.00;0.00;0.62;0.00;0.00;0.62;2.70;2.37;;;27.90;31.40;;;;;;2251097;61;20471;-56
2022/06/11 00:43:08;0.00;0.00;0.62;0.00;0.00;0.62;2.90;2.27;;;27.90;31.50;;;;;;2251321;61;20402;-51
2022/06/11 00:45:59;0.00;0.00;0.62;0.00;0.00;0.62;4.03;1.97;;;27.90;31.50;;;;;;2250489;61;20426;-55
2022/06/11 00:48:44;0.00;0.00;0.62;0.00;0.00;0.62;4.33;2.10;;;27.90;31.50;;;;;;2251805;61;20361;-54
2022/06/11 00:51:31;0.00;0.00;0.62;0.00;0.00;0.62;3.40;1.93;;;27.80;31.50;;;;;;2251407;61;20455;-53
2022/06/11 00:54:22;0.00;0.00;0.62;0.00;0.00;0.62;5.33;2.30;;;27.80;31.60;;;;;;2250669;61;20383;-53
2022/06/11 00:57:08;0.00;0.00;0.62;0.00;0.00;0.62;3.73;2.10;;;27.80;31.60;;;;;;2251083;61;20371;-52
2022/06/11 01:00:00;0.00;0.00;0.62;0.00;0.00;0.62;2.80;2.40;;;27.80;31.70;;;;;;2251072;61;20418;-53
2022/06/11 01:02:47;0.00;0.00;0.62;0.00;0.00;0.62;4.43;2.13;;;27.70;31.70;;;;;;2251349;61;20404;-54
2022/06/11 01:05:36;0.00;0.00;0.62;0.00;0.00;0.62;4.20;2.37;;;27.70;32.40;;;;;;2251460;61;20374;-55
2022/06/11 01:08:52;0.00;0.00;0.62;0.00;0.00;0.62;4.73;2.23;;;27.70;31.80;;;;;;2250672;61;20771;-55
2022/06/11 01:11:52;0.00;0.00;0.62;0.00;0.00;0.62;4.13;2.60;;;27.60;31.80;;;;;;2248201;61;20451;-56
2022/06/11 01:14:45;0.00;0.00;0.62;0.00;0.00;0.62;2.80;2.20;;;27.60;31.80;;;;;;2250729;61;21018;-55
2022/06/11 01:17:36;0.00;0.00;0.62;0.00;0.00;0.62;3.23;2.03;;;27.50;31.80;;;;;;2250827;61;20422;-55
2022/06/11 01:20:39;0.00;0.00;0.62;0.00;0.00;0.62;3.17;1.80;;;27.50;31.70;;;;;;2251471;61;20447;-53
2022/06/11 01:24:07;0.00;0.00;0.62;0.00;0.00;0.62;3.57;2.10;;;27.40;31.70;;;;;;2251099;61;20385;-54
2022/06/11 01:27:14;0.00;0.00;0.62;0.00;0.00;0.62;2.17;1.80;;;27.40;31.70;;;;;;2252163;61;20394;-51
2022/06/11 01:30:04;0.00;0.00;0.62;0.00;0.00;0.62;5.07;2.10;;;27.40;31.70;;;;;;2251566;61;20366;-50
2022/06/11 01:33:01;0.00;0.00;0.62;0.00;0.00;0.62;2.83;2.23;;;27.30;32.30;;;;;;2248817;61;20939;-53
2022/06/11 01:35:59;0.00;0.00;0.62;0.00;0.00;0.62;3.30;2.27;;;27.30;31.60;;;;;;2251468;61;20928;-52
2022/06/11 01:38:53;0.00;0.00;0.62;0.00;0.00;0.62;2.40;1.93;;;27.30;31.60;;;;;;2251305;61;20421;-51
2022/06/11 01:41:46;0.00;0.00;0.62;0.00;0.00;0.62;3.50;2.20;;;27.20;31.50;;;;;;2251899;61;20563;-52
2022/06/11 01:44:35;0.00;0.00;0.62;0.00;0.00;0.62;3.30;1.80;;;27.20;31.50;;;;;;2251253;61;20426;-50
2022/06/11 01:47:22;0.00;0.00;0.62;0.00;0.00;0.62;3.60;1.97;;;27.20;31.50;;;;;;2251662;61;20366;-54
2022/06/11 01:50:09;0.00;0.00;0.62;0.00;0.00;0.62;3.33;1.83;;;27.20;31.50;;;;;;2251905;61;20417;-53
2022/06/11 01:53:23;0.00;0.00;0.62;0.00;0.00;0.62;5.10;1.67;;;27.20;31.60;;;;;;2251010;61;20434;-52
2022/06/11 01:56:24;0.00;0.00;0.62;0.00;0.00;0.62;3.80;2.20;;;27.10;31.40;;;;;;2251674;61;20378;-55
2022/06/11 01:59:40;0.00;0.00;0.62;0.00;0.00;0.62;2.60;2.40;;;27.10;31.40;;;;;;2251828;61;20402;-51
2022/06/11 02:02:54;0.00;0.00;0.62;0.00;0.00;0.62;4.47;2.20;;;27.00;31.40;;;;;;2251955;61;20408;-51
2022/06/11 02:05:56;0.00;0.00;0.62;0.00;0.00;0.62;5.37;2.00;;;27.00;31.40;;;;;;2251325;61;20653;-52
2022/06/11 02:08:57;0.00;0.00;0.62;0.00;0.00;0.62;6.80;2.67;;;27.00;31.40;;;;;;2251234;61;20777;-51
2022/06/11 02:11:47;0.00;0.00;0.62;0.00;0.00;0.62;4.53;2.20;;;27.00;31.40;;;;;;2251972;61;20362;-52
2022/06/11 02:14:41;0.00;0.00;0.62;0.00;0.00;0.62;3.90;1.83;;;27.00;31.40;;;;;;2250998;61;20382;-51
2022/06/11 02:17:32;0.00;0.00;0.62;0.00;0.00;0.62;3.20;1.90;;;26.90;31.30;;;;;;2251575;61;20949;-54
2022/06/11 02:20:24;0.00;0.00;0.62;0.00;0.00;0.62;4.17;2.47;;;26.90;31.30;;;;;;2251261;61;20440;-52
2022/06/11 02:23:18;0.00;0.00;0.62;0.00;0.00;0.62;4.07;2.67;;;26.80;31.30;;;;;;2250504;61;20386;-53
2022/06/11 02:26:09;0.00;0.00;0.62;0.00;0.00;0.62;5.37;2.53;;;26.80;31.40;;;;;;2251846;61;20393;-52
2022/06/11 02:28:57;0.00;0.00;0.62;0.00;0.00;0.62;5.70;2.40;;;26.80;31.50;;;;;;2251243;61;20367;-55
2022/06/11 02:31:46;0.00;0.00;0.62;0.00;0.00;0.62;2.87;2.33;;;26.80;31.50;;;;;;2251157;61;20409;-56
2022/06/11 02:34:32;0.00;0.00;0.62;0.00;0.00;0.62;2.60;1.90;;;26.80;31.60;;;;;;2251324;61;20522;-52
2022/06/11 02:37:24;0.00;0.00;0.62;0.00;0.00;0.62;7.33;2.23;;;26.70;31.60;;;;;;2250874;61;20362;-51
2022/06/11 02:40:16;0.00;0.00;0.62;0.00;0.00;0.62;4.87;2.33;;;26.70;31.70;;;;;;2251766;61;20374;-53
2022/06/11 02:43:01;0.00;0.00;0.62;0.00;0.00;0.62;2.90;2.07;;;26.70;31.80;;;;;;2251619;61;20398;-55
2022/06/11 02:45:47;0.00;0.00;0.62;0.00;0.00;0.62;3.80;2.60;;;26.70;31.90;;;;;;2251086;61;20437;-53
2022/06/11 02:48:31;0.00;0.00;0.62;0.00;0.00;0.62;3.40;2.03;;;26.60;31.90;;;;;;2251942;61;20410;-52
2022/06/11 02:51:17;0.00;0.00;0.62;0.00;0.00;0.62;2.30;1.90;;;26.60;31.90;;;;;;2251193;61;20367;-52
2022/06/11 02:54:04;0.00;0.00;0.62;0.00;0.00;0.62;4.47;1.77;;;26.60;32.00;;;;;;2251596;61;20386;-51
2022/06/11 02:56:51;0.00;0.00;0.62;0.00;0.00;0.62;2.20;1.80;;;26.60;32.10;;;;;;2251626;61;20363;-54
2022/06/11 02:59:36;0.00;0.00;0.62;0.00;0.00;0.62;4.50;2.53;;;26.60;32.10;;;;;;2250846;61;20418;-54
2022/06/11 03:02:22;0.00;0.00;0.62;0.00;0.00;0.62;3.50;2.07;;;26.60;32.20;;;;;;2251775;61;20416;-51
2022/06/11 03:05:09;0.00;0.00;0.62;0.00;0.00;0.62;3.30;2.27;;;26.60;32.80;;;;;;2251349;61;20437;-51
2022/06/11 03:07:54;0.00;0.00;0.62;0.00;0.00;0.62;2.87;1.90;;;26.60;32.20;;;;;;2251143;61;20366;-51
2022/06/11 03:10:40;0.00;0.00;0.62;0.00;0.00;0.62;4.73;2.03;;;26.60;32.20;;;;;;2251615;61;20366;-51
2022/06/11 03:13:27;0.00;0.00;0.62;0.00;0.00;0.62;2.60;2.00;;;26.60;32.20;;;;;;2251194;61;20534;-54
2022/06/11 03:16:13;0.00;0.00;0.62;0.00;0.00;0.62;2.80;1.63;;;26.60;32.30;;;;;;2251069;61;20402;-52
2022/06/11 03:18:58;0.00;0.00;0.62;0.00;0.00;0.62;2.97;2.13;;;26.50;32.20;;;;;;2251774;61;20363;-51
2022/06/11 03:21:42;0.00;0.00;0.62;0.00;0.00;0.62;5.37;2.37;;;26.50;32.30;;;;;;2250942;61;20930;-53
2022/06/11 03:24:28;0.00;0.00;0.62;0.00;0.00;0.62;2.80;1.97;;;26.50;32.30;;;;;;2251085;61;20382;-51
2022/06/11 03:27:17;0.00;0.00;0.62;0.00;0.00;0.62;3.37;1.90;;;26.50;32.30;;;;;;2251640;61;20363;-52
2022/06/11 03:30:04;0.00;0.00;0.62;0.00;0.00;0.62;2.60;1.77;;;26.50;32.30;;;;;;2250843;61;20492;-51
2022/06/11 03:32:49;0.00;0.00;0.62;0.00;0.00;0.62;3.40;2.40;;;26.50;32.30;;;;;;2252192;61;20562;-53
2022/06/11 03:35:34;0.00;0.00;0.62;0.00;0.00;0.62;3.53;2.30;;;26.50;32.30;;;;;;2250903;61;20446;-51
2022/06/11 03:38:20;0.00;0.00;0.62;0.00;0.00;0.62;2.50;1.93;;;26.50;32.40;;;;;;2250956;61;20386;-53
2022/06/11 03:41:07;0.00;0.00;0.62;0.00;0.00;0.62;2.60;1.70;;;26.40;32.30;;;;;;2251134;61;20510;-52
2022/06/11 03:43:53;0.00;0.00;0.62;0.00;0.00;0.62;3.30;1.90;;;26.40;32.30;;;;;;2250372;61;20863;-52
2022/06/11 03:46:38;0.00;0.00;0.62;0.00;0.00;0.62;2.50;1.83;;;26.40;32.30;;;;;;2251478;61;20396;-53
2022/06/11 03:49:24;0.00;0.00;0.62;0.00;0.00;0.62;5.00;2.07;;;26.40;32.30;;;;;;2251645;61;20812;-51
2022/06/11 03:52:10;0.00;0.00;0.62;0.00;0.00;0.62;3.07;2.13;;;26.40;32.40;;;;;;2250765;61;20420;-50
2022/06/11 03:54:56;0.00;0.00;0.62;0.00;0.00;0.62;2.00;1.70;;;26.40;32.40;;;;;;2251560;61;20971;-53
2022/06/11 03:57:41;0.00;0.00;0.62;0.00;0.00;0.62;3.03;1.80;;;26.30;32.50;;;;;;2250768;61;20497;-52
2022/06/11 04:03:35;0.00;0.00;0.62;0.00;0.00;0.62;3.17;2.13;;;26.30;32.50;;;;;;2251256;61;20401;-51
2022/06/11 04:06:25;0.00;0.00;0.62;0.00;0.00;0.62;2.83;1.90;;;26.30;32.50;;;;;;2250441;61;20398;-51
2022/06/11 04:09:14;0.00;0.00;0.62;0.00;0.00;0.62;3.60;1.87;;;26.30;32.60;;;;;;2251487;61;20860;-51
2022/06/11 04:12:01;0.00;0.00;0.62;0.00;0.00;0.62;3.20;2.10;;;26.30;33.40;;;;;;2247880;61;20363;-54
2022/06/11 04:14:48;0.00;0.00;0.62;0.00;0.00;0.62;2.40;1.80;;;26.30;32.70;;;;;;2250515;61;20386;-52
2022/06/11 04:17:34;0.00;0.00;0.62;0.00;0.00;0.62;4.07;2.20;;;26.30;32.70;;;;;;2251393;61;20410;-53
2022/06/11 04:20:20;0.00;0.00;0.62;0.00;0.00;0.62;2.80;2.10;;;26.30;32.70;;;;;;2250631;61;20386;-56
2022/06/11 04:23:05;0.00;0.00;0.62;0.00;0.00;0.62;3.00;2.17;;;26.30;32.70;;;;;;2251427;61;20970;-52
2022/06/11 04:25:51;0.00;0.00;0.62;0.00;0.00;0.62;2.57;1.87;;;26.30;32.80;;;;;;2248015;61;20399;-51
2022/06/11 04:28:36;0.00;0.00;0.62;0.00;0.00;0.62;3.50;2.20;;;26.30;32.80;;;;;;2250204;61;20362;-52
2022/06/11 04:31:23;0.00;0.00;0.62;0.00;0.00;0.62;2.77;1.90;;;26.30;32.90;;;;;;2251535;61;20443;-56
2022/06/11 04:34:10;0.00;0.00;0.62;0.00;0.00;0.62;3.70;2.00;;;26.30;32.90;;;;;;2250643;61;20922;-54
2022/06/11 04:36:57;0.00;0.00;0.62;0.00;0.00;0.62;3.07;1.90;;;26.20;32.80;;;;;;2250906;61;20413;-51
2022/06/11 04:39:46;0.00;0.00;0.62;0.00;0.00;0.62;3.93;2.20;;;26.30;33.70;;;;;;2247905;61;20396;-54
2022/06/11 04:42:31;0.00;0.00;0.62;0.00;0.00;0.62;3.10;2.17;;;26.30;33.00;;;;;;2250907;61;20382;-54
2022/06/11 04:45:18;0.00;0.00;0.62;0.00;0.00;0.62;3.77;2.50;;;26.20;33.00;;;;;;2251242;61;20449;-52
2022/06/11 04:48:04;0.00;0.00;0.62;0.00;0.00;0.62;3.50;2.30;;;26.20;33.10;;;;;;2251094;61;20398;-50
2022/06/11 04:50:50;0.00;0.00;0.62;0.00;0.00;0.62;6.63;2.40;;;26.20;33.20;;;;;;2250673;61;20828;-54
2022/06/11 04:53:35;0.00;0.00;0.62;0.00;0.00;0.62;5.40;2.00;;;26.20;33.20;;;;;;2251119;61;20390;-51
2022/06/11 04:56:25;0.00;0.00;0.62;0.00;0.00;0.62;3.43;2.10;;;26.20;33.20;;;;;;2250566;61;20371;-59
2022/06/11 04:59:10;0.00;0.00;0.62;0.00;0.00;0.62;3.30;2.40;;;26.20;33.90;;;;;;2250852;61;20367;-52
2022/06/11 05:01:54;0.00;0.00;0.62;0.00;0.00;0.62;3.03;2.03;;;26.20;33.20;;;;;;2251058;61;20395;-53
2022/06/11 05:04:39;0.00;0.00;0.62;0.00;0.00;0.62;4.60;2.10;;;26.20;33.10;;;;;;2250366;61;20398;-53
2022/06/11 05:07:25;0.00;0.00;0.62;0.00;0.00;0.62;3.60;2.17;;;26.30;33.10;;;;;;2251392;61;20422;-52
2022/06/11 05:10:13;0.00;0.00;0.62;0.00;0.00;0.62;4.37;2.30;;;26.30;33.10;;;;;;2251525;61;20847;-54
2022/06/11 05:12:58;0.00;0.00;0.62;0.00;0.00;0.62;2.73;2.30;;;26.30;33.10;;;;;;2250756;61;20494;-54
2022/06/11 05:15:47;0.00;0.00;0.62;0.00;0.00;0.62;3.20;2.30;;;26.30;33.10;;;;;;2250976;61;20915;-50
2022/06/11 05:18:32;0.00;0.00;0.62;0.00;0.00;0.62;2.60;2.03;;;26.30;33.10;;;;;;2251031;61;20926;-51
2022/06/11 05:21:19;0.00;0.00;0.62;0.00;0.00;0.62;2.50;2.10;;;26.30;33.00;;;;;;2251031;61;20796;-49
2022/06/11 05:24:06;0.00;0.00;0.62;0.00;0.00;0.62;3.27;2.50;;;26.30;33.10;;;;;;2248118;61;20391;-53
2022/06/11 05:26:55;0.00;0.00;0.62;0.00;0.00;0.62;3.97;2.00;;;26.40;33.20;;;;;;2250999;61;20695;-55
2022/06/11 05:29:48;0.00;0.00;0.62;0.00;0.00;0.62;3.13;2.03;;;26.40;33.20;;;;;;2250984;61;20406;-53
2022/06/11 05:32:37;0.00;0.00;0.62;0.00;0.00;0.62;2.43;1.97;;;26.40;33.20;;;;;;2251430;61;20451;-54
2022/06/11 05:35:25;0.00;0.00;0.62;0.00;0.00;0.62;3.37;1.63;;;26.50;33.30;;;;;;2250286;61;20403;-55
2022/06/11 05:38:17;0.00;0.00;0.62;0.00;0.00;0.62;3.30;2.33;;;26.40;33.30;;;;;;2250787;61;20822;-57
2022/06/11 05:41:04;0.00;0.00;0.62;0.00;0.00;0.62;4.53;2.67;;;26.40;33.30;;;;;;2251287;61;20389;-57
2022/06/11 05:43:48;0.00;0.00;0.62;0.00;0.00;0.62;3.30;2.00;;;26.50;33.30;;;;;;2250537;61;20418;-54
2022/06/11 05:46:35;0.00;0.00;0.62;0.00;0.00;0.62;3.10;2.13;;;26.50;33.40;;;;;;2251260;61;20475;-53
2022/06/11 05:49:24;0.00;0.00;0.62;0.00;0.00;0.62;3.93;2.00;;;26.50;33.40;;;;;;2250448;61;20505;-56
2022/06/11 05:52:13;0.00;0.00;0.62;0.00;0.00;0.62;3.30;2.20;;;26.50;33.40;;;;;;2251403;61;20406;-54
2022/06/11 05:54:59;0.00;0.00;0.62;0.00;0.00;0.62;5.07;2.60;;;26.50;33.40;;;;;;2250981;61;20374;-54
2022/06/11 05:57:47;0.00;0.00;0.62;0.00;0.00;0.62;4.73;2.70;;;26.50;33.50;;;;;;2250175;61;20371;-55
2022/06/11 06:00:32;0.00;0.00;0.62;0.00;0.00;0.62;3.60;2.60;;;26.50;33.50;;;;;;2251512;61;20370;-55
2022/06/11 06:03:17;0.00;0.00;0.62;0.00;0.00;0.62;4.47;2.47;;;26.50;33.60;;;;;;2250620;61;20495;-55
2022/06/11 06:06:03;0.00;0.00;0.62;0.00;0.00;0.62;4.10;2.90;;;26.50;33.70;;;;;;2250502;61;20643;-54
2022/06/11 06:08:48;0.00;0.00;0.62;0.00;0.00;0.62;2.30;1.97;;;26.50;33.80;;;;;;2252090;61;20942;-60
2022/06/11 06:11:33;0.00;0.00;0.62;0.00;0.00;0.62;3.53;2.03;;;26.60;33.90;;;;;;2250485;61;20887;-60
2022/06/11 06:14:19;0.00;0.00;0.62;0.00;0.00;0.62;3.27;2.20;;;26.60;33.90;;;;;;2251672;61;20441;-59
2022/06/11 06:17:04;0.00;0.00;0.62;0.00;0.00;0.62;6.40;3.20;;;26.60;33.90;;;;;;2251315;61;20359;-56
2022/06/11 06:19:48;0.00;0.00;0.62;0.00;0.00;0.62;4.13;2.60;;;26.60;34.00;;;;;;2251075;61;20414;-60
2022/06/11 06:22:35;0.00;0.00;0.62;0.00;0.00;0.62;2.73;2.50;;;26.60;34.00;;;;;;2252177;61;20493;-61
2022/06/11 06:25:22;0.00;0.00;0.62;0.00;0.00;0.62;2.83;2.53;;;26.60;34.10;;;;;;2251660;61;20402;-60
2022/06/11 06:28:08;0.00;0.00;0.62;0.00;0.00;0.62;4.50;2.97;;;26.60;34.10;;;;;;2251445;61;20371;-60
2022/06/11 06:30:54;0.00;0.00;0.62;0.00;0.00;0.62;3.20;2.90;;;26.60;34.10;;;;;;2252038;61;20402;-56
2022/06/11 06:33:40;0.00;0.00;0.62;0.00;0.00;0.62;3.17;2.83;;;26.60;34.10;;;;;;2251177;61;20925;-60
2022/06/11 06:36:25;0.00;0.00;0.62;0.00;0.00;0.62;6.03;2.60;;;26.60;34.20;;;;;;2252039;61;20451;-61
2022/06/11 06:39:11;0.00;0.00;0.62;0.00;0.00;0.62;5.13;3.23;;;26.70;34.30;;;;;;2251680;61;20367;-58
2022/06/11 06:41:56;0.00;0.00;0.62;0.00;0.00;0.62;4.70;2.77;;;26.70;34.30;;;;;;2250939;61;20769;-59
2022/06/11 06:44:41;0.00;0.00;0.62;0.00;0.00;0.62;4.97;2.90;;;26.70;34.40;;;;;;2251911;61;20398;-59
2022/06/11 06:47:27;0.00;0.00;0.62;0.00;0.00;0.62;6.00;2.83;;;26.70;34.40;;;;;;2251077;61;20841;-59
2022/06/11 06:50:13;0.00;0.00;0.62;0.00;0.00;0.62;5.07;3.27;;;26.80;34.50;;;;;;2251165;61;20370;-61
2022/06/11 06:52:57;0.00;0.00;0.62;0.00;0.00;0.62;7.60;3.00;;;26.80;34.50;;;;;;2252311;61;20430;-60
2022/06/11 06:55:42;0.00;0.00;0.62;0.00;0.00;0.62;3.90;3.17;;;26.80;34.50;;;;;;2251689;61;20371;-60
2022/06/11 06:58:27;0.00;0.00;0.62;0.00;0.00;0.62;5.50;3.07;;;26.80;34.60;;;;;;2251934;61;20727;-54
2022/06/11 07:01:12;0.00;0.00;0.62;0.00;0.00;0.62;5.60;3.67;;;26.80;34.60;;;;;;2251982;61;20953;-58
2022/06/11 07:03:59;0.00;0.00;0.62;0.00;0.00;0.62;5.07;3.23;;;26.80;34.60;;;;;;2250793;61;20383;-55
2022/06/11 07:06:44;0.00;0.00;0.62;0.00;0.00;0.62;4.50;3.10;;;26.90;34.70;;;;;;2251594;61;20452;-60
2022/06/11 07:09:29;0.00;0.00;0.62;0.00;0.00;0.62;4.60;3.00;;;26.90;34.60;;;;;;2251621;61;20370;-60
2022/06/11 07:12:14;0.00;0.00;0.62;0.00;0.00;0.62;2.67;2.13;;;26.90;34.60;;;;;;2251294;61;20371;-60
2022/06/11 07:14:59;0.00;0.00;0.62;0.00;0.00;0.62;2.80;2.30;;;26.90;34.50;;;;;;2251172;61;20486;-58
2022/06/11 07:17:49;0.00;0.00;0.62;0.00;0.00;0.62;4.17;2.63;;;27.00;34.50;;;;;;2248955;61;20378;-58
2022/06/11 07:20:37;0.00;0.00;0.62;0.00;0.00;0.62;3.77;2.30;;;27.00;34.50;;;;;;2251222;61;20355;-56
2022/06/11 07:23:26;0.00;0.00;0.62;0.00;0.00;0.62;2.90;2.47;;;27.00;34.50;;;;;;2251416;61;20418;-55
2022/06/11 07:26:17;0.00;0.00;0.62;0.00;0.00;0.62;3.33;2.77;;;27.00;34.40;;;;;;2250906;61;20383;-55
2022/06/11 07:29:09;0.00;0.00;0.62;0.00;0.00;0.62;2.87;2.57;;;27.10;34.40;;;;;;2251334;61;20366;-55
2022/06/11 07:32:01;0.00;0.00;0.62;0.00;0.00;0.62;3.20;2.60;;;27.10;34.30;;;;;;2251396;61;20418;-54
2022/06/11 07:34:46;0.00;0.00;0.62;0.00;0.00;0.62;2.10;1.90;;;27.10;34.30;;;;;;2249917;61;20798;-53
2022/06/11 07:37:35;0.00;0.00;0.62;0.00;0.00;0.62;5.33;2.40;;;27.20;34.30;;;;;;2251272;61;20370;-57
2022/06/11 07:40:21;0.00;0.00;0.62;0.00;0.00;0.62;2.83;2.30;;;27.20;34.20;;;;;;2250878;61;20390;-58
2022/06/11 07:43:06;0.00;0.00;0.62;0.00;0.00;0.62;2.83;1.87;;;27.20;34.20;;;;;;2251162;61;20425;-61
2022/06/11 07:45:51;0.00;0.00;0.62;0.00;0.00;0.62;3.60;2.03;;;27.20;34.10;;;;;;2251741;61;20487;-56
2022/06/11 07:48:36;0.00;0.00;0.62;0.00;0.00;0.62;4.13;2.20;;;27.20;34.10;;;;;;2250668;61;20450;-50
2022/06/11 07:51:21;0.00;0.00;0.62;0.00;0.00;0.62;2.80;2.10;;;27.20;34.00;;;;;;2251271;61;20772;-62
2022/06/11 07:54:08;0.00;0.00;0.62;0.00;0.00;0.62;2.73;1.90;;;27.30;34.00;;;;;;2251217;61;20391;-59
2022/06/11 07:56:54;0.00;0.00;0.62;0.00;0.00;0.62;3.60;1.83;;;27.30;33.90;;;;;;2250652;61;20778;-55
2022/06/11 07:59:38;0.00;0.00;0.62;0.00;0.00;0.62;3.20;1.67;;;27.30;33.80;;;;;;2250081;61;20422;-56
2022/06/11 08:02:25;0.00;0.00;0.62;0.00;0.00;0.62;3.50;1.93;;;27.40;33.80;;;;;;2249375;61;20506;-58
2022/06/11 08:05:09;0.00;0.00;0.62;0.00;0.00;0.62;2.30;1.70;;;27.40;33.70;;;;;;2249800;61;20405;-52
2022/06/11 08:07:55;0.00;0.00;0.62;0.00;0.00;0.62;2.07;1.70;;;27.40;33.70;;;;;;2250937;61;20370;-55
2022/06/11 08:10:43;0.00;0.00;0.62;0.00;0.00;0.62;1.87;1.60;;;27.40;33.50;;;;;;2250843;61;20809;-52
2022/06/11 08:13:29;0.00;0.00;0.62;0.00;0.00;0.62;2.53;1.70;;;27.50;33.60;;;;;;2251586;61;20387;-52
2022/06/11 08:16:14;0.00;0.00;0.62;0.00;0.00;0.62;4.33;1.60;;;27.50;33.30;;;;;;2250724;61;20433;-55
2022/06/11 08:18:59;0.00;0.00;0.62;0.00;0.00;0.62;2.93;1.70;;;27.50;33.00;;;;;;2250234;61;20367;-54
2022/06/11 08:21:44;0.00;0.00;0.62;0.00;0.00;0.62;4.07;1.50;;;27.60;33.00;;;;;;2251410;61;20362;-58
2022/06/11 08:24:28;0.00;0.00;0.62;0.00;0.00;0.62;2.07;1.40;;;27.50;32.90;;;;;;2250718;61;20379;-55
2022/06/11 08:27:15;0.00;0.00;0.62;0.00;0.00;0.62;1.90;1.37;;;27.60;32.90;;;;;;2251626;61;20406;-51
2022/06/11 08:30:00;0.00;0.00;0.62;0.00;0.00;0.62;1.50;1.10;;;27.60;32.90;;;;;;2251684;61;20433;-56
2022/06/11 08:32:45;0.00;0.00;0.62;0.00;0.00;0.62;2.17;1.53;;;27.70;32.70;;;;;;2250788;61;20370;-58
2022/06/11 08:35:32;0.00;0.00;0.62;0.00;0.00;0.62;1.70;1.60;;;27.60;32.40;;;;;;2251432;61;20413;-57
2022/06/11 08:38:17;0.00;0.00;0.62;0.00;0.00;0.62;1.53;1.27;;;27.70;32.40;;;;;;2250738;61;20370;-57
2022/06/11 08:41:02;0.00;0.00;0.62;0.00;0.00;0.62;1.60;1.20;;;27.70;32.20;;;;;;2250572;61;20366;-54
2022/06/11 08:44:00;0.00;0.00;0.62;0.00;0.00;0.62;2.53;1.37;;;27.80;31.90;;;;;;2251420;61;20410;-56
2022/06/11 08:46:48;0.00;0.00;0.62;0.00;0.00;0.62;2.13;1.33;;;27.80;31.90;;;;;;2250652;61;20422;-62
2022/06/11 08:49:42;0.00;0.00;0.62;0.00;0.00;0.62;1.70;1.23;;;27.80;31.50;;;;;;2251694;61;20386;-56
2022/06/11 08:52:29;0.00;0.00;0.62;0.00;0.00;0.62;1.47;1.20;;;27.80;31.40;;;;;;2251884;61;20359;-54
2022/06/11 08:55:14;0.00;0.00;0.62;0.00;0.00;0.62;2.90;1.67;;;27.80;31.30;;;;;;2250014;61;20386;-57
2022/06/11 08:58:09;0.00;0.00;0.62;0.00;0.00;0.62;2.63;1.90;;;27.80;31.10;;;;;;2252180;61;20370;-54
2022/06/11 09:01:06;0.00;0.00;0.62;0.00;0.00;0.62;1.50;1.23;;;27.80;31.10;;;;;;2251570;61;20429;-53
2022/06/11 09:04:16;0.00;0.00;0.62;0.00;0.00;0.62;1.83;1.40;;;27.80;31.20;;;;;;2250925;61;20438;-55
2022/06/11 09:07:35;0.00;0.00;0.62;0.00;0.00;0.62;2.33;1.40;;;27.80;31.00;;;;;;2251385;61;20403;-58
2022/06/11 09:10:39;0.00;0.00;0.62;0.00;0.00;0.62;2.03;1.40;;;27.80;30.90;;;;;;2249972;61;20401;-59
2022/06/11 09:14:02;0.00;0.00;0.62;0.00;0.00;0.62;1.60;1.10;;;27.90;31.00;;;;;;2250898;61;20634;-52
2022/06/11 09:17:15;0.00;0.00;0.62;0.00;0.00;0.62;3.13;1.37;;;27.90;30.80;;;;;;2248955;61;21186;-57
2022/06/11 09:20:13;0.00;0.00;0.62;0.00;0.00;0.62;1.90;1.60;;;27.90;30.90;;;;;;2247804;61;20913;-53
2022/06/11 09:23:48;0.00;0.00;0.62;0.00;0.00;0.62;1.63;1.10;;;27.90;30.70;;;;;;2251010;61;20775;-52
2022/06/11 09:26:44;0.00;0.00;0.62;0.00;0.00;0.62;3.97;1.30;;;28.00;31.30;;;;;;2251653;61;20401;-50
2022/06/11 09:29:37;0.00;0.00;0.62;0.00;0.00;0.62;2.20;1.20;;;27.90;30.20;;;;;;2251138;61;20358;-51
2022/06/11 09:32:29;0.00;0.00;0.62;0.00;0.00;0.62;3.07;1.40;;;27.90;30.30;;;;;;2250668;61;20923;-55
2022/06/11 09:35:19;0.00;0.00;0.62;0.00;0.00;0.62;2.90;1.17;;;27.90;30.20;;;;;;2251254;61;20768;-55
2022/06/11 09:38:18;0.00;0.00;0.62;0.00;0.00;0.62;2.47;1.10;;;28.00;30.30;;;;;;2250049;56;20410;-63
2022/06/11 09:41:19;0.00;0.00;0.62;0.00;0.00;0.62;2.27;1.40;;;28.00;30.10;;;;;;2250074;54;20401;-65
2022/06/11 09:44:23;0.00;0.00;0.62;0.00;0.00;0.62;1.90;1.20;;;28.00;30.00;;;;;;2253514;61;20385;-64
2022/06/11 09:47:17;0.00;0.00;0.62;0.00;0.00;0.62;2.40;1.50;;;28.00;29.90;;;;;;2253871;61;20460;-60
2022/06/11 09:50:19;0.00;0.00;0.62;0.00;0.00;0.62;1.80;1.10;;;28.00;29.70;;;;;;2259098;61;20744;-63
2022/06/11 09:53:34;0.00;0.00;0.62;0.00;0.00;0.62;2.70;1.20;;;28.00;29.70;;;;;;2258452;61;20412;-62
2022/06/11 09:56:30;0.00;0.00;0.62;0.00;0.00;0.62;2.53;1.20;;;28.00;29.80;;;;;;2260984;61;20361;-63
2022/06/11 09:59:28;0.00;0.00;0.62;0.00;0.00;0.62;1.60;1.20;;;28.00;30.00;;;;;;2258160;61;20500;-67
2022/06/11 10:02:26;0.00;0.00;0.62;0.00;0.00;0.62;1.83;1.17;;;28.00;30.00;;;;;;2260006;61;20361;-59
2022/06/11 10:05:21;0.00;0.00;0.62;0.00;0.00;0.62;2.50;1.30;;;28.00;30.00;;;;;;2260501;61;20435;-63
2022/06/11 10:08:31;0.00;0.00;0.62;0.00;0.00;0.62;1.77;1.20;;;28.10;29.90;;;;;;2259635;61;20365;-62
2022/06/11 10:11:23;0.00;0.00;0.62;0.00;0.00;0.62;1.83;1.30;;;28.10;29.90;;;;;;2257186;61;20827;-67
2022/06/11 10:14:29;0.00;0.00;0.62;0.00;0.00;0.62;1.60;1.17;;;28.10;29.90;;;;;;2260296;61;20360;-62
2022/06/11 10:17:20;0.00;0.00;0.62;0.00;0.00;0.62;1.97;0.93;;;28.10;29.90;;;;;;2259765;61;20400;-65
2022/06/11 10:20:12;0.00;0.00;0.62;0.00;0.00;0.62;2.50;1.27;;;28.10;30.50;;;;;;2260362;61;20392;-65
2022/06/11 10:23:05;0.00;0.00;0.62;0.00;0.00;0.62;1.60;0.93;;;28.10;29.90;;;;;;2259480;61;20412;-63
2022/06/11 10:25:55;0.00;0.00;0.62;0.00;0.00;0.62;1.90;1.33;;;28.20;29.90;;;;;;2260196;61;20381;-62
2022/06/11 10:28:49;0.00;0.00;0.62;0.00;0.00;0.62;3.70;1.40;;;28.20;29.80;;;;;;2260647;61;20789;-66
2022/06/11 10:31:40;0.00;0.00;0.62;0.00;0.00;0.62;1.63;1.33;;;28.20;29.70;;;;;;2259343;61;20377;-66
2022/06/11 10:34:27;0.00;0.00;0.62;0.00;0.00;0.62;1.60;1.20;;;28.20;29.80;;;;;;2260266;61;20365;-65
2022/06/11 10:37:21;0.00;0.00;0.62;0.00;0.00;0.62;2.30;1.27;;;28.20;29.80;;;;;;2260064;61;20443;-67
2022/06/11 10:40:21;0.00;0.00;0.62;0.00;0.00;0.62;2.60;1.37;;;28.20;29.80;;;;;;2254300;61;20480;-68
2022/06/11 10:43:16;0.00;0.00;0.62;0.00;0.00;0.62;1.93;1.63;;;28.30;29.80;;;;;;2260605;61;20402;-65
2022/06/11 10:46:02;0.00;0.00;0.62;0.00;0.00;0.62;4.50;1.20;;;28.20;29.80;;;;;;2256125;61;20384;-65
2022/06/11 10:48:47;0.00;0.00;0.62;0.00;0.00;0.62;3.20;1.60;;;28.30;29.80;;;;;;2260507;61;20463;-65
2022/06/11 10:51:35;0.00;0.00;0.62;0.00;0.00;0.62;3.27;1.83;;;28.30;29.80;;;;;;2259604;61;20369;-61
2022/06/11 10:54:23;0.00;0.00;0.62;0.00;0.00;0.62;2.27;1.50;;;28.30;29.80;;;;;;2256512;61;20773;-64
2022/06/11 10:57:19;0.00;0.00;0.62;0.00;0.00;0.62;4.33;1.20;;;28.30;29.70;;;;;;2260505;61;20365;-64
2022/06/11 11:00:16;0.00;0.00;0.62;0.00;0.00;0.62;2.90;1.50;;;28.30;29.60;;;;;;2259447;61;20493;-63
2022/06/11 11:03:12;0.00;0.00;0.62;0.00;0.00;0.62;1.80;1.40;;;28.30;29.50;;;;;;2257122;61;20419;-65
2022/06/11 11:06:02;0.00;0.00;0.62;0.00;0.00;0.62;1.97;1.27;;;28.40;29.50;;;;;;2260306;61;20908;-64
2022/06/11 11:08:54;0.00;0.00;0.62;0.00;0.00;0.62;2.00;1.20;;;28.40;29.10;;;;;;2259770;61;20388;-64
2022/06/11 11:11:44;0.00;0.00;0.62;0.00;0.00;0.62;2.23;1.40;;;28.40;29.10;;;;;;2260729;61;20488;-65
2022/06/11 11:14:38;0.00;0.00;0.62;0.00;0.00;0.62;4.00;1.73;;;28.40;29.00;;;;;;2259839;61;20368;-64